Time;durP1;ratioP1;P1;durP2;ratioP2;P2;SDS_P1;SDS_P2;PMS_P1;PMS_P2;Temp;Humidity;BMP_temperature;BMP_pressure;BME280_temperature;BME280_humidity;BME280_pressure;Samples;Min_cycle;Max_cycle;Signal;HPM_P1;HPM_P2
2021/10/03 00:01:22;;;;;;;2.08;1.98;;;17.20;95.00;;;;;;4191013;28;20056;-58
2021/10/03 00:03:47;;;;;;;2.35;2.13;;;17.20;94.80;;;;;;4190584;28;20072;-60
2021/10/03 00:06:12;;;;;;;1.90;1.80;;;17.20;95.00;;;;;;4191060;28;20044;-60
2021/10/03 00:08:34;;;;;;;1.83;1.73;;;17.20;95.30;;;;;;4191085;28;20045;-59
2021/10/03 00:10:58;;;;;;;2.15;2.05;;;17.20;95.00;;;;;;4179433;28;20063;-59
2021/10/03 00:13:20;;;;;;;2.17;2.08;;;17.20;95.10;;;;;;4177755;28;20057;-61
2021/10/03 00:15:43;;;;;;;2.33;2.22;;;17.20;95.00;;;;;;4177791;28;20510;-59
2021/10/03 00:18:08;;;;;;;2.25;2.15;;;17.20;95.10;;;;;;4177752;28;20052;-59
2021/10/03 00:20:30;;;;;;;1.58;1.58;;;17.20;95.10;;;;;;4177981;28;20053;-60
2021/10/03 00:22:52;;;;;;;2.00;1.80;;;17.20;95.60;;;;;;4188442;28;20451;-58
2021/10/03 00:25:16;;;;;;;2.10;2.00;;;17.20;95.00;;;;;;4194540;28;20048;-59
2021/10/03 00:27:39;;;;;;;2.20;2.10;;;17.20;95.40;;;;;;4193121;28;20052;-60
2021/10/03 00:30:01;;;;;;;1.90;1.80;;;17.20;95.20;;;;;;4187800;28;20057;-59
2021/10/03 00:32:24;;;;;;;2.17;1.70;;;17.20;95.10;;;;;;4177440;28;20103;-59
2021/10/03 00:34:46;;;;;;;1.90;1.80;;;17.20;95.20;;;;;;4177722;28;20124;-58
2021/10/03 00:37:08;;;;;;;1.77;1.67;;;17.20;95.30;;;;;;4177936;28;20051;-59
2021/10/03 00:39:30;;;;;;;1.85;1.70;;;17.30;95.40;;;;;;4177662;28;20057;-59
2021/10/03 00:41:53;;;;;;;1.88;1.77;;;17.30;95.60;;;;;;4177790;28;20072;-60
2021/10/03 00:44:16;;;;;;;2.45;1.90;;;17.30;95.50;;;;;;4177557;28;20075;-59
2021/10/03 00:46:38;;;;;;;2.63;2.38;;;17.30;95.40;;;;;;4177256;28;20052;-58
2021/10/03 00:49:00;;;;;;;1.63;1.50;;;17.30;95.30;;;;;;4177306;28;20045;-58
2021/10/03 00:51:23;;;;;;;1.50;1.50;;;17.30;95.40;;;;;;4179816;28;20056;-59
2021/10/03 00:53:45;;;;;;;2.05;1.63;;;17.30;95.60;;;;;;4194063;28;20072;-58
2021/10/03 00:56:12;;;;;;;1.55;1.55;;;17.30;95.40;;;;;;4193786;28;20064;-58
2021/10/03 00:58:34;;;;;;;1.30;1.30;;;17.30;95.50;;;;;;4193377;28;20048;-57
2021/10/03 01:00:57;;;;;;;2.00;1.38;;;17.30;95.30;;;;;;4194086;28;20135;-59
2021/10/03 01:03:20;;;;;;;1.20;1.20;;;17.30;95.40;;;;;;4189229;28;20053;-57
2021/10/03 01:05:42;;;;;;;6.10;1.63;;;17.30;95.60;;;;;;4177092;28;20060;-58
2021/10/03 01:08:05;;;;;;;1.70;1.20;;;17.30;95.90;;;;;;4176926;28;20059;-58
2021/10/03 01:10:28;;;;;;;1.13;1.13;;;17.30;95.60;;;;;;4177175;28;20065;-58
2021/10/03 01:12:53;;;;;;;1.50;1.40;;;17.30;95.70;;;;;;4177192;28;20053;-59
2021/10/03 01:15:15;;;;;;;0.90;0.90;;;17.30;95.60;;;;;;4182128;28;20493;-60
2021/10/03 01:17:38;;;;;;;1.77;1.30;;;17.30;95.90;;;;;;4193527;28;20143;-59
2021/10/03 01:20:01;;;;;;;2.83;0.93;;;17.30;96.00;;;;;;4192640;28;20538;-59
2021/10/03 01:22:24;;;;;;;1.35;1.10;;;17.30;96.00;;;;;;4192331;28;20044;-57
2021/10/03 01:24:46;;;;;;;1.77;1.00;;;17.30;96.00;;;;;;4193366;28;20059;-59
2021/10/03 01:27:08;;;;;;;1.35;0.98;;;17.30;96.00;;;;;;4187448;28;20045;-59
2021/10/03 01:29:32;;;;;;;1.00;1.00;;;17.30;95.80;;;;;;4176817;28;20052;-57
2021/10/03 01:31:54;;;;;;;2.22;1.20;;;17.30;96.10;;;;;;4176965;28;20056;-61
2021/10/03 01:34:16;;;;;;;1.13;1.13;;;17.30;96.20;;;;;;4188502;28;20059;-58
2021/10/03 01:36:37;;;;;;;0.80;0.80;;;17.30;96.10;;;;;;4193027;28;20491;-58
2021/10/03 01:39:01;;;;;;;1.02;1.02;;;17.30;96.00;;;;;;4186241;28;20127;-60
2021/10/03 01:41:23;;;;;;;1.05;1.05;;;17.30;96.00;;;;;;4176676;28;20048;-60
2021/10/03 01:43:46;;;;;;;0.75;0.75;;;17.30;96.00;;;;;;4176560;28;20049;-59
2021/10/03 01:46:08;;;;;;;0.80;0.80;;;17.30;96.00;;;;;;4176565;28;20761;-59
2021/10/03 01:48:38;;;;;;;0.90;0.90;;;17.30;96.20;;;;;;4177732;28;20079;-59
2021/10/03 01:51:03;;;;;;;0.70;0.70;;;17.30;96.00;;;;;;4176656;28;20045;-59
2021/10/03 01:53:27;;;;;;;0.63;0.63;;;17.30;96.40;;;;;;4182912;28;20126;-58
2021/10/03 01:55:52;;;;;;;0.80;0.80;;;17.40;96.50;;;;;;4191865;28;20574;-59
2021/10/03 01:58:15;;;;;;;1.45;0.98;;;17.40;96.50;;;;;;4184606;28;20049;-59
2021/10/03 02:00:39;;;;;;;0.90;0.90;;;17.40;96.20;;;;;;4176467;28;20064;-60
2021/10/03 02:03:04;;;;;;;0.80;0.80;;;17.30;96.10;;;;;;4176246;28;20499;-60
2021/10/03 02:05:27;;;;;;;0.90;0.85;;;17.40;96.50;;;;;;4176274;28;20033;-60
2021/10/03 02:07:49;;;;;;;0.60;0.60;;;17.40;96.40;;;;;;4176241;28;20076;-59
2021/10/03 02:10:11;;;;;;;1.00;1.00;;;17.40;96.10;;;;;;4181144;28;20123;-60
2021/10/03 02:12:35;;;;;;;0.75;0.73;;;17.40;96.40;;;;;;4192438;28;20044;-59
2021/10/03 02:14:57;;;;;;;0.70;0.70;;;17.40;96.40;;;;;;4192718;28;20067;-60
2021/10/03 02:17:19;;;;;;;0.60;0.60;;;17.40;96.40;;;;;;4192567;28;20045;-59
2021/10/03 02:19:42;;;;;;;1.50;0.77;;;17.40;96.40;;;;;;4192749;28;20810;-60
2021/10/03 02:22:06;;;;;;;0.77;0.60;;;17.40;96.30;;;;;;4187599;28;20197;-60
2021/10/03 02:24:28;;;;;;;1.48;0.85;;;17.40;96.20;;;;;;4176230;28;20037;-60
2021/10/03 02:26:50;;;;;;;0.80;0.80;;;17.40;96.20;;;;;;4175775;28;20400;-59
2021/10/03 02:29:14;;;;;;;0.80;0.80;;;17.40;96.30;;;;;;4176300;28;20099;-60
2021/10/03 02:31:37;;;;;;;1.77;0.85;;;17.40;96.40;;;;;;4175763;28;20040;-59
2021/10/03 02:33:59;;;;;;;0.65;0.65;;;17.40;96.30;;;;;;4178716;28;20478;-58
2021/10/03 02:36:23;;;;;;;0.80;0.80;;;17.40;96.20;;;;;;4192158;28;20052;-59
2021/10/03 02:38:46;;;;;;;0.73;0.57;;;17.40;96.80;;;;;;4192443;28;20083;-59
2021/10/03 02:41:09;;;;;;;1.08;0.70;;;17.40;96.50;;;;;;4192150;28;20056;-59
2021/10/03 02:43:35;;;;;;;1.38;0.63;;;17.40;96.40;;;;;;4191885;28;20119;-60
2021/10/03 02:46:00;;;;;;;0.60;0.60;;;17.40;96.40;;;;;;4190997;28;20068;-58
2021/10/03 02:48:24;;;;;;;0.50;0.50;;;17.40;96.30;;;;;;4175318;28;20103;-59
2021/10/03 02:50:47;;;;;;;1.65;0.63;;;17.40;96.10;;;;;;4175267;28;20507;-59
2021/10/03 02:53:10;;;;;;;0.68;0.68;;;17.40;96.10;;;;;;4175664;28;20057;-59
2021/10/03 02:55:32;;;;;;;1.13;0.80;;;17.40;96.30;;;;;;4175498;28;20143;-59
2021/10/03 02:57:54;;;;;;;0.60;0.60;;;17.40;96.10;;;;;;4175739;28;20052;-60
2021/10/03 03:00:17;;;;;;;0.65;0.65;;;17.40;96.10;;;;;;4191596;28;20052;-61
2021/10/03 03:02:40;;;;;;;0.70;0.70;;;17.40;96.50;;;;;;4192021;28;20509;-59
2021/10/03 03:05:03;;;;;;;0.90;0.90;;;17.40;96.30;;;;;;4191735;28;20049;-60
2021/10/03 03:07:25;;;;;;;0.82;0.82;;;17.40;96.30;;;;;;4191677;28;20059;-59
2021/10/03 03:09:47;;;;;;;0.70;0.70;;;17.40;96.30;;;;;;4191634;28;20086;-60
2021/10/03 03:12:09;;;;;;;1.08;1.08;;;17.40;96.20;;;;;;4158559;28;20132;-60
2021/10/03 03:14:31;;;;;;;0.80;0.80;;;17.40;96.30;;;;;;4158651;28;20049;-60
2021/10/03 03:16:54;;;;;;;1.10;1.00;;;17.40;96.20;;;;;;4159024;28;20099;-60
2021/10/03 03:19:18;;;;;;;2.72;1.00;;;17.40;96.20;;;;;;4158752;28;20053;-59
2021/10/03 03:21:40;;;;;;;0.80;0.80;;;17.40;96.60;;;;;;4158657;28;20132;-60
2021/10/03 03:24:03;;;;;;;0.95;0.80;;;17.40;96.20;;;;;;4158671;28;20129;-59
2021/10/03 03:26:25;;;;;;;1.23;1.15;;;17.40;96.20;;;;;;4158502;28;20059;-59
2021/10/03 03:28:47;;;;;;;0.98;0.98;;;17.40;96.20;;;;;;4158541;28;20057;-60
2021/10/03 03:31:09;;;;;;;2.08;1.23;;;17.40;96.50;;;;;;4158642;28;20053;-60
2021/10/03 03:33:31;;;;;;;0.70;0.70;;;17.40;96.60;;;;;;4158624;28;20049;-59
2021/10/03 03:35:54;;;;;;;0.90;0.90;;;17.40;96.30;;;;;;4187088;28;20051;-59
2021/10/03 03:38:16;;;;;;;0.90;0.90;;;17.40;96.40;;;;;;4191154;28;20052;-59
2021/10/03 03:40:39;;;;;;;0.90;0.90;;;17.50;96.50;;;;;;4179648;28;20049;-60
2021/10/03 03:43:01;;;;;;;0.65;0.65;;;17.40;96.40;;;;;;4174814;28;20487;-60
2021/10/03 03:45:23;;;;;;;2.60;1.13;;;17.40;96.50;;;;;;4174118;28;20052;-59
2021/10/03 03:47:45;;;;;;;0.80;0.80;;;17.40;96.50;;;;;;4188471;28;20117;-60
2021/10/03 03:50:11;;;;;;;0.75;0.75;;;17.50;96.30;;;;;;4191387;28;20411;-60
2021/10/03 03:52:34;;;;;;;0.95;0.93;;;17.50;96.60;;;;;;4191324;28;20045;-60
2021/10/03 03:54:56;;;;;;;0.60;0.60;;;17.50;96.60;;;;;;4191320;28;20128;-60
2021/10/03 03:57:18;;;;;;;0.60;0.60;;;17.50;96.50;;;;;;4191333;28;20455;-60
2021/10/03 03:59:41;;;;;;;0.80;0.80;;;17.50;96.40;;;;;;4176468;28;20049;-60
2021/10/03 04:02:03;;;;;;;0.40;0.40;;;17.50;96.60;;;;;;4174844;28;20080;-60
2021/10/03 04:04:25;;;;;;;0.40;0.30;;;17.50;96.80;;;;;;4174468;28;20410;-60
2021/10/03 04:06:47;;;;;;;0.88;0.50;;;17.40;96.40;;;;;;4174725;28;20052;-60
2021/10/03 04:09:11;;;;;;;0.40;0.40;;;17.50;96.50;;;;;;4174748;28;20412;-60
2021/10/03 04:11:33;;;;;;;0.73;0.50;;;17.40;96.20;;;;;;4186156;28;20482;-60
2021/10/03 04:13:55;;;;;;;0.28;0.28;;;17.40;96.20;;;;;;4190987;28;20118;-59
2021/10/03 04:16:17;;;;;;;1.67;0.47;;;17.40;96.00;;;;;;4191435;28;20564;-60
2021/10/03 04:18:39;;;;;;;1.00;0.38;;;17.50;96.20;;;;;;4191226;28;20047;-60
2021/10/03 04:21:02;;;;;;;0.90;0.50;;;17.40;96.20;;;;;;4191006;28;20060;-60
2021/10/03 04:23:24;;;;;;;0.30;0.30;;;17.40;96.20;;;;;;4181027;28;20049;-59
2021/10/03 04:25:47;;;;;;;0.65;0.40;;;17.50;96.00;;;;;;4174467;28;20049;-59
2021/10/03 04:28:10;;;;;;;0.65;0.50;;;17.40;95.90;;;;;;4173837;28;20052;-61
2021/10/03 04:30:32;;;;;;;0.43;0.40;;;17.40;95.80;;;;;;4174502;28;20510;-60
2021/10/03 04:32:54;;;;;;;0.57;0.57;;;17.40;96.30;;;;;;4174729;28;20041;-60
2021/10/03 04:35:16;;;;;;;0.30;0.30;;;17.50;95.80;;;;;;4181758;28;20056;-60
2021/10/03 04:37:38;;;;;;;0.40;0.40;;;17.40;95.80;;;;;;4190726;28;20051;-60
2021/10/03 04:40:00;;;;;;;1.45;0.47;;;17.50;96.60;;;;;;4190731;28;20048;-59
2021/10/03 04:42:24;;;;;;;0.30;0.30;;;17.50;95.90;;;;;;4190788;28;20510;-60
2021/10/03 04:44:47;;;;;;;0.35;0.35;;;17.40;95.80;;;;;;4190968;28;20059;-59
2021/10/03 04:47:09;;;;;;;0.22;0.20;;;17.40;95.70;;;;;;4185892;28;20495;-60
2021/10/03 04:49:31;;;;;;;0.30;0.25;;;17.40;96.10;;;;;;4174354;28;20081;-60
2021/10/03 04:51:53;;;;;;;0.45;0.32;;;17.40;95.60;;;;;;4174221;28;20071;-59
2021/10/03 04:54:15;;;;;;;0.40;0.40;;;17.40;95.60;;;;;;4174147;28;20052;-60
2021/10/03 04:56:37;;;;;;;1.08;0.22;;;17.40;95.70;;;;;;4173180;28;20045;-59
2021/10/03 04:59:00;;;;;;;0.65;0.30;;;17.40;95.60;;;;;;4180911;28;20102;-59
2021/10/03 05:01:22;;;;;;;0.47;0.43;;;17.40;95.60;;;;;;4193550;28;20061;-60
2021/10/03 05:03:45;;;;;;;0.50;0.20;;;17.40;95.60;;;;;;4193955;28;20056;-60
2021/10/03 05:06:10;;;;;;;0.32;0.30;;;17.50;95.60;;;;;;4193737;28;20045;-60
2021/10/03 05:08:31;;;;;;;0.50;0.30;;;17.40;95.50;;;;;;4193972;28;20052;-60
2021/10/03 05:10:53;;;;;;;0.28;0.28;;;17.40;95.50;;;;;;4191696;28;20048;-60
2021/10/03 05:13:15;;;;;;;1.33;0.40;;;17.40;95.30;;;;;;4176652;28;20152;-60
2021/10/03 05:15:38;;;;;;;0.80;0.40;;;17.40;95.30;;;;;;4177095;28;20514;-59
2021/10/03 05:18:00;;;;;;;0.40;0.40;;;17.40;95.50;;;;;;4185736;28;20044;-59
2021/10/03 05:20:23;;;;;;;0.20;0.20;;;17.40;95.40;;;;;;4193279;28;20048;-55
2021/10/03 05:22:45;;;;;;;0.40;0.30;;;17.40;95.20;;;;;;4193142;28;20200;-60
2021/10/03 05:25:08;;;;;;;0.52;0.30;;;17.40;95.20;;;;;;4193244;28;20436;-60
2021/10/03 05:27:30;;;;;;;0.75;0.40;;;17.40;95.10;;;;;;4192977;28;20064;-60
2021/10/03 05:29:52;;;;;;;0.35;0.32;;;17.40;95.00;;;;;;4193246;28;20691;-60
2021/10/03 05:32:16;;;;;;;0.50;0.30;;;17.40;95.00;;;;;;4193087;28;20509;-59
2021/10/03 05:34:38;;;;;;;0.20;0.20;;;17.40;95.00;;;;;;4193311;28;20067;-59
2021/10/03 05:37:00;;;;;;;0.28;0.28;;;17.40;94.90;;;;;;4160599;28;20041;-60
2021/10/03 05:39:23;;;;;;;0.40;0.30;;;17.40;95.00;;;;;;4168299;28;20098;-60
2021/10/03 05:41:45;;;;;;;0.30;0.17;;;17.40;95.00;;;;;;4176962;28;20083;-54
2021/10/03 05:44:07;;;;;;;0.28;0.28;;;17.40;95.00;;;;;;4176683;28;20241;-59
2021/10/03 05:46:30;;;;;;;1.98;0.40;;;17.40;95.20;;;;;;4176649;28;20055;-60
2021/10/03 05:48:54;;;;;;;0.40;0.40;;;17.40;95.00;;;;;;4176804;28;20048;-58
2021/10/03 05:51:16;;;;;;;0.35;0.20;;;17.50;95.00;;;;;;4176247;28;20056;-58
2021/10/03 05:53:39;;;;;;;1.25;0.43;;;17.40;95.00;;;;;;4175260;28;20053;-59
2021/10/03 05:56:02;;;;;;;0.45;0.45;;;17.40;94.90;;;;;;4176813;28;20072;-60
2021/10/03 05:58:24;;;;;;;0.63;0.60;;;17.40;95.20;;;;;;4176424;28;20049;-60
2021/10/03 06:00:46;;;;;;;0.95;0.60;;;17.40;94.70;;;;;;4192238;28;20558;-59
2021/10/03 06:03:08;;;;;;;1.73;0.52;;;17.40;94.70;;;;;;4190508;28;20058;-59
2021/10/03 06:05:32;;;;;;;0.60;0.40;;;17.40;94.70;;;;;;4192771;28;20106;-60
2021/10/03 06:07:54;;;;;;;0.50;0.50;;;17.50;94.70;;;;;;4192740;28;20048;-60
2021/10/03 06:10:16;;;;;;;1.15;0.50;;;17.40;94.70;;;;;;4191583;28;20131;-60
2021/10/03 06:12:38;;;;;;;0.95;0.70;;;17.40;94.60;;;;;;4159776;28;20620;-60
2021/10/03 06:15:00;;;;;;;3.17;0.90;;;17.40;94.60;;;;;;4159692;28;20558;-60
2021/10/03 06:17:22;;;;;;;0.60;0.60;;;17.40;94.60;;;;;;4160289;28;20057;-60
2021/10/03 06:19:44;;;;;;;0.63;0.40;;;17.40;94.60;;;;;;4159659;28;20491;-60
2021/10/03 06:22:08;;;;;;;0.20;0.20;;;17.40;94.60;;;;;;4159798;28;20490;-59
2021/10/03 06:24:30;;;;;;;1.20;0.50;;;17.40;94.60;;;;;;4158504;28;20053;-60
2021/10/03 06:26:52;;;;;;;2.03;0.47;;;17.40;94.60;;;;;;4159207;28;20510;-59
2021/10/03 06:29:15;;;;;;;0.57;0.30;;;17.40;94.60;;;;;;4159322;28;20049;-59
2021/10/03 06:31:37;;;;;;;0.17;0.17;;;17.40;94.60;;;;;;4158916;28;20088;-59
2021/10/03 06:33:58;;;;;;;1.55;0.70;;;17.40;94.60;;;;;;4159297;28;20057;-60
2021/10/03 06:36:22;;;;;;;3.17;0.47;;;17.40;94.50;;;;;;4159184;28;20057;-60
2021/10/03 06:38:46;;;;;;;0.65;0.50;;;17.30;94.50;;;;;;4159147;28;20098;-59
2021/10/03 06:41:08;;;;;;;1.35;0.30;;;17.40;94.50;;;;;;4159373;28;20057;-58
2021/10/03 06:43:35;;;;;;;1.52;0.40;;;17.30;94.40;;;;;;4159380;28;20052;-58
2021/10/03 06:45:57;;;;;;;0.30;0.30;;;17.30;94.40;;;;;;4190712;28;20052;-59
2021/10/03 06:48:24;;;;;;;0.22;0.22;;;17.30;94.40;;;;;;4171662;28;20052;-59
2021/10/03 06:50:46;;;;;;;0.98;0.35;;;17.40;94.40;;;;;;4190592;28;20072;-58
2021/10/03 06:53:09;;;;;;;0.30;0.30;;;17.40;94.30;;;;;;4192023;28;20129;-59
2021/10/03 06:55:33;;;;;;;0.57;0.30;;;17.40;94.30;;;;;;4192045;28;20453;-58
2021/10/03 06:57:54;;;;;;;2.08;0.52;;;17.30;94.30;;;;;;4191201;28;20048;-58
2021/10/03 07:00:17;;;;;;;0.30;0.30;;;17.40;94.30;;;;;;4192037;28;20605;-57
2021/10/03 07:02:40;;;;;;;0.68;0.40;;;17.40;94.20;;;;;;4190296;28;20041;-59
2021/10/03 07:05:03;;;;;;;0.90;0.40;;;17.40;94.30;;;;;;4190280;28;20688;-58
2021/10/03 07:07:25;;;;;;;0.20;0.20;;;17.40;94.20;;;;;;4181567;28;20055;-58
2021/10/03 07:09:47;;;;;;;0.60;0.38;;;17.40;94.30;;;;;;4191796;28;20479;-58
2021/10/03 07:12:11;;;;;;;1.00;0.40;;;17.40;94.20;;;;;;4192038;28;20052;-58
2021/10/03 07:14:33;;;;;;;1.00;0.50;;;17.40;94.20;;;;;;4178952;28;20048;-56
2021/10/03 07:16:55;;;;;;;0.98;0.43;;;17.40;94.10;;;;;;4185571;28;20443;-57
2021/10/03 07:19:17;;;;;;;0.40;0.40;;;17.40;94.10;;;;;;4179059;28;20513;-56
2021/10/03 07:21:39;;;;;;;0.38;0.28;;;17.40;94.20;;;;;;4177723;28;20048;-58
2021/10/03 07:24:01;;;;;;;0.45;0.43;;;17.40;94.10;;;;;;4174000;28;20041;-58
2021/10/03 07:26:24;;;;;;;0.57;0.30;;;17.30;94.10;;;;;;4185619;28;20065;-58
2021/10/03 07:28:48;;;;;;;0.60;0.45;;;17.40;94.20;;;;;;4180185;28;20048;-58
2021/10/03 07:31:11;;;;;;;0.52;0.30;;;17.40;94.20;;;;;;4187323;28;20056;-58
2021/10/03 07:33:34;;;;;;;1.85;0.30;;;17.40;94.10;;;;;;4175906;28;20059;-59
2021/10/03 07:35:56;;;;;;;0.88;0.47;;;17.40;94.10;;;;;;4174873;28;20179;-57
2021/10/03 07:38:18;;;;;;;0.20;0.10;;;17.40;94.70;;;;;;4189962;28;20040;-56
2021/10/03 07:40:40;;;;;;;0.50;0.50;;;17.40;94.80;;;;;;4171510;28;20063;-58
2021/10/03 07:43:02;;;;;;;0.35;0.30;;;17.50;94.80;;;;;;4175102;28;20076;-56
2021/10/03 07:45:25;;;;;;;0.20;0.20;;;17.50;94.70;;;;;;4183999;28;20050;-59
2021/10/03 07:47:47;;;;;;;0.98;0.20;;;17.40;94.60;;;;;;4183198;28;20083;-58
2021/10/03 07:50:10;;;;;;;0.30;0.30;;;17.40;94.50;;;;;;4177685;28;20106;-60
2021/10/03 07:52:32;;;;;;;0.98;0.20;;;17.40;94.50;;;;;;4190012;28;20048;-58
2021/10/03 07:54:54;;;;;;;0.30;0.20;;;17.40;94.40;;;;;;4190170;28;20074;-58
2021/10/03 07:57:16;;;;;;;0.38;0.32;;;17.40;94.40;;;;;;4175397;28;20037;-58
2021/10/03 07:59:39;;;;;;;0.10;0.10;;;17.40;94.40;;;;;;4158509;28;20041;-58
2021/10/03 08:02:03;;;;;;;0.20;0.20;;;17.40;94.40;;;;;;4157906;28;20065;-58
2021/10/03 08:04:25;;;;;;;0.20;0.20;;;17.40;94.40;;;;;;4176069;28;20129;-59
2021/10/03 08:06:47;;;;;;;0.40;0.10;;;17.40;94.40;;;;;;4184922;28;20070;-58
2021/10/03 08:09:10;;;;;;;0.30;0.30;;;17.40;94.40;;;;;;4190958;28;20552;-57
2021/10/03 08:11:32;;;;;;;0.22;0.22;;;17.40;94.40;;;;;;4190658;28;20622;-56
2021/10/03 08:13:55;;;;;;;0.10;0.10;;;17.40;94.40;;;;;;4175650;28;20044;-57
2021/10/03 08:16:19;;;;;;;0.10;0.10;;;17.40;94.40;;;;;;4188165;28;20445;-58
2021/10/03 08:18:43;;;;;;;0.20;0.20;;;17.40;94.40;;;;;;4174625;28;20079;-56
2021/10/03 08:21:06;;;;;;;0.30;0.20;;;17.40;94.40;;;;;;4174753;28;20131;-56
2021/10/03 08:23:29;;;;;;;1.25;0.30;;;17.40;94.30;;;;;;4174251;28;20049;-58
2021/10/03 08:25:51;;;;;;;2.13;0.30;;;17.40;94.40;;;;;;4185623;28;20187;-56
2021/10/03 08:28:13;;;;;;;0.20;0.20;;;17.40;94.40;;;;;;4174305;28;20044;-58
2021/10/03 08:30:36;;;;;;;0.20;0.20;;;17.40;94.30;;;;;;4174526;28;20526;-53
2021/10/03 08:32:58;;;;;;;0.10;0.10;;;17.30;94.20;;;;;;4177072;28;20041;-56
2021/10/03 08:35:21;;;;;;;0.20;0.20;;;17.30;94.40;;;;;;4193038;28;20088;-57
2021/10/03 08:37:44;;;;;;;0.20;0.20;;;17.40;94.30;;;;;;4182985;28;20077;-59
2021/10/03 08:40:08;;;;;;;0.40;0.40;;;17.30;94.10;;;;;;4177744;28;20037;-57
2021/10/03 08:42:30;;;;;;;0.45;0.20;;;17.30;94.10;;;;;;4178702;28;20415;-57
2021/10/03 08:44:52;;;;;;;0.50;0.30;;;17.30;94.10;;;;;;4178498;28;20076;-54
2021/10/03 08:47:16;;;;;;;0.45;0.30;;;17.30;94.00;;;;;;4181395;28;20064;-57
2021/10/03 08:49:38;;;;;;;0.30;0.30;;;17.30;94.00;;;;;;4193803;28;20571;-58
2021/10/03 08:52:02;;;;;;;0.47;0.40;;;17.30;93.90;;;;;;4193767;28;20471;-57
2021/10/03 08:54:24;;;;;;;0.30;0.30;;;17.30;93.90;;;;;;4191977;28;20051;-52
2021/10/03 08:56:47;;;;;;;0.40;0.30;;;17.30;93.90;;;;;;4182611;28;20096;-58
2021/10/03 08:59:09;;;;;;;0.77;0.20;;;17.30;93.90;;;;;;4177272;28;20053;-57
2021/10/03 09:01:49;;;;;;;0.95;0.10;;;17.30;93.80;;;;;;4160807;28;20053;-57
2021/10/03 09:04:25;;;;;;;0.63;0.30;;;17.30;93.70;;;;;;4169817;28;20061;-59
2021/10/03 09:07:04;;;;;;;1.20;0.30;;;17.30;93.80;;;;;;4176680;28;20201;-58
2021/10/03 09:09:48;;;;;;;0.35;0.32;;;17.30;93.80;;;;;;4178141;28;20106;-59
2021/10/03 09:12:23;;;;;;;0.80;0.30;;;17.30;93.70;;;;;;4193219;28;20414;-58
2021/10/03 09:14:45;;;;;;;0.55;0.20;;;17.30;93.70;;;;;;4176746;28;20053;-56
2021/10/03 09:17:17;;;;;;;0.77;0.30;;;17.30;93.70;;;;;;4176725;28;20040;-57
2021/10/03 09:19:38;;;;;;;0.35;0.30;;;17.30;93.50;;;;;;4177086;28;20049;-55
2021/10/03 09:22:02;;;;;;;0.35;0.30;;;17.20;93.60;;;;;;4177014;28;20118;-56
2021/10/03 09:24:24;;;;;;;0.45;0.45;;;17.30;93.60;;;;;;4179082;28;20419;-58
2021/10/03 09:26:55;;;;;;;0.55;0.50;;;17.20;93.60;;;;;;4176188;28;20055;-58
2021/10/03 09:29:22;;;;;;;0.55;0.40;;;17.30;93.50;;;;;;4188007;28;20052;-58
2021/10/03 09:32:05;;;;;;;1.17;0.73;;;17.20;93.60;;;;;;4192661;28;20055;-60
2021/10/03 09:34:28;;;;;;;1.10;0.60;;;17.20;93.50;;;;;;4189396;28;20453;-58
2021/10/03 09:36:50;;;;;;;0.60;0.30;;;17.20;93.50;;;;;;4192224;28;20045;-57
2021/10/03 09:39:13;;;;;;;0.75;0.50;;;17.20;93.80;;;;;;4193384;28;20053;-57
2021/10/03 09:41:39;;;;;;;0.20;0.20;;;17.20;93.50;;;;;;4191246;28;20056;-58
2021/10/03 09:44:07;;;;;;;0.30;0.30;;;17.20;93.60;;;;;;4191862;28;20049;-59
2021/10/03 09:46:34;;;;;;;0.43;0.30;;;17.20;93.50;;;;;;4192891;28;20126;-57
2021/10/03 09:48:56;;;;;;;0.68;0.60;;;17.20;93.40;;;;;;4171588;28;20475;-57
2021/10/03 09:51:19;;;;;;;0.73;0.30;;;17.20;93.40;;;;;;4187781;28;20068;-58
2021/10/03 09:53:42;;;;;;;0.20;0.20;;;17.20;93.70;;;;;;4176540;28;20521;-57
2021/10/03 09:56:06;;;;;;;0.98;0.70;;;17.20;93.40;;;;;;4176586;28;20056;-57
2021/10/03 09:58:29;;;;;;;0.73;0.55;;;17.20;93.20;;;;;;4177384;28;20044;-57
2021/10/03 10:00:51;;;;;;;0.98;0.98;;;17.20;93.20;;;;;;4185267;28;20052;-56
2021/10/03 10:03:15;;;;;;;0.88;0.70;;;17.20;93.50;;;;;;4192546;28;20072;-58
2021/10/03 10:05:37;;;;;;;0.57;0.57;;;17.20;93.00;;;;;;4192692;28;20037;-57
2021/10/03 10:07:59;;;;;;;0.40;0.40;;;17.20;93.10;;;;;;4174814;28;20102;-56
2021/10/03 10:10:22;;;;;;;0.47;0.30;;;17.20;93.00;;;;;;4176076;28;20073;-56
2021/10/03 10:12:49;;;;;;;0.50;0.50;;;17.20;93.10;;;;;;4175855;28;20495;-56
2021/10/03 10:15:12;;;;;;;0.30;0.30;;;17.20;93.20;;;;;;4176066;28;20045;-52
2021/10/03 10:17:38;;;;;;;0.50;0.30;;;17.20;93.20;;;;;;4179798;28;20494;-55
2021/10/03 10:20:01;;;;;;;0.40;0.40;;;17.20;93.10;;;;;;4188658;28;20049;-59
2021/10/03 10:22:31;;;;;;;0.65;0.50;;;17.20;93.10;;;;;;4176299;28;20491;-59
2021/10/03 10:24:55;;;;;;;1.35;0.40;;;17.20;93.10;;;;;;4176570;28;20049;-57
2021/10/03 10:27:51;;;;;;;1.50;1.40;;;17.20;92.80;;;;;;4175521;28;20064;-58
2021/10/03 10:30:17;;;;;;;0.40;0.28;;;17.10;92.60;;;;;;4176135;28;20081;-58
2021/10/03 10:33:04;;;;;;;6.30;5.68;;;17.10;92.70;;;;;;4177331;28;20437;-59
2021/10/03 10:35:27;;;;;;;2.25;2.05;;;17.10;92.60;;;;;;4175283;28;20053;-59
2021/10/03 10:38:19;;;;;;;2.42;1.52;;;17.10;92.90;;;;;;4178965;28;20048;-55
2021/10/03 10:40:41;;;;;;;0.85;0.50;;;17.10;92.90;;;;;;4181869;28;20479;-56
2021/10/03 10:43:45;;;;;;;1.77;1.67;;;17.10;93.20;;;;;;4192175;28;20059;-56
2021/10/03 10:46:29;;;;;;;0.90;0.90;;;17.10;93.10;;;;;;4191533;28;20048;-56
2021/10/03 10:49:30;;;;;;;0.60;0.55;;;17.10;93.40;;;;;;4175924;28;20049;-55
2021/10/03 10:52:40;;;;;;;0.30;0.30;;;17.10;93.70;;;;;;4158748;28;20124;-57
2021/10/03 10:55:26;;;;;;;0.28;0.20;;;17.10;93.40;;;;;;4173888;28;20454;-54
2021/10/03 10:58:17;;;;;;;1.33;0.65;;;17.10;93.30;;;;;;4175299;28;20083;-57
2021/10/03 11:01:11;;;;;;;0.20;0.20;;;17.10;93.30;;;;;;4170732;28;20487;-58
2021/10/03 11:04:21;;;;;;;0.50;0.50;;;17.10;93.40;;;;;;4158855;28;20476;-57
2021/10/03 11:07:05;;;;;;;0.57;0.47;;;17.00;93.30;;;;;;4173928;28;20063;-58
2021/10/03 11:09:28;;;;;;;1.05;0.30;;;17.10;93.50;;;;;;4167758;28;20051;-58
2021/10/03 11:12:06;;;;;;;0.25;0.25;;;17.10;93.60;;;;;;4175283;28;20053;-57
2021/10/03 11:14:29;;;;;;;0.50;0.30;;;17.10;93.50;;;;;;4175033;28;20135;-55
2021/10/03 11:16:58;;;;;;;0.40;0.40;;;17.10;93.60;;;;;;4174984;28;20045;-52
2021/10/03 11:19:24;;;;;;;0.20;0.20;;;17.10;93.60;;;;;;4186752;28;20474;-55
2021/10/03 11:21:49;;;;;;;0.80;0.30;;;17.10;93.60;;;;;;4189230;28;20510;-55
2021/10/03 11:24:18;;;;;;;0.55;0.55;;;17.10;93.60;;;;;;4191259;28;20127;-56
2021/10/03 11:26:48;;;;;;;1.48;0.95;;;17.10;93.60;;;;;;4191325;28;20091;-55
2021/10/03 11:29:10;;;;;;;0.73;0.32;;;17.10;93.60;;;;;;4158016;28;20044;-56
2021/10/03 11:31:38;;;;;;;2.55;0.45;;;17.10;93.60;;;;;;4158331;28;20059;-50
2021/10/03 11:34:02;;;;;;;0.40;0.35;;;17.10;93.70;;;;;;4158307;28;20515;-54
2021/10/03 11:36:24;;;;;;;0.50;0.50;;;17.10;93.90;;;;;;4158464;28;20063;-55
2021/10/03 11:38:49;;;;;;;0.45;0.32;;;17.20;94.00;;;;;;4158051;28;20052;-55
2021/10/03 11:41:11;;;;;;;0.45;0.40;;;17.20;93.90;;;;;;4138495;28;20053;-56
2021/10/03 11:43:33;;;;;;;0.43;0.43;;;17.20;93.90;;;;;;4155437;28;20484;-56
2021/10/03 11:45:55;;;;;;;2.05;0.90;;;17.20;93.90;;;;;;4158425;28;20057;-57
2021/10/03 11:48:25;;;;;;;0.75;0.75;;;17.20;93.90;;;;;;4152648;28;20141;-57
2021/10/03 11:50:50;;;;;;;0.52;0.52;;;17.20;93.90;;;;;;4141426;28;20049;-55
2021/10/03 11:53:14;;;;;;;0.63;0.55;;;17.20;93.90;;;;;;4141121;28;20045;-59
2021/10/03 11:55:39;;;;;;;1.23;0.50;;;17.20;93.90;;;;;;4141879;28;20056;-57
2021/10/03 11:58:05;;;;;;;1.15;0.70;;;17.20;93.90;;;;;;4141665;28;20052;-58
2021/10/03 12:00:27;;;;;;;0.30;0.30;;;17.20;94.00;;;;;;4141859;28;20065;-56
2021/10/03 12:02:51;;;;;;;0.70;0.30;;;17.20;94.00;;;;;;4141981;28;20130;-56
2021/10/03 12:05:20;;;;;;;0.65;0.50;;;17.20;94.00;;;;;;4141388;28;20980;-58
2021/10/03 12:07:44;;;;;;;0.88;0.40;;;17.20;94.00;;;;;;4143806;28;20431;-58
2021/10/03 12:10:09;;;;;;;0.20;0.20;;;17.20;94.00;;;;;;4144551;28;20045;-57
2021/10/03 12:12:54;;;;;;;0.30;0.30;;;17.20;94.00;;;;;;4145035;28;20132;-59
2021/10/03 12:15:39;;;;;;;1.00;0.30;;;17.20;94.00;;;;;;4145212;28;20065;-58
2021/10/03 12:18:02;;;;;;;0.75;0.38;;;17.20;94.00;;;;;;4144554;28;20148;-58
2021/10/03 12:20:24;;;;;;;0.40;0.30;;;17.20;94.10;;;;;;4144502;28;20107;-57
2021/10/03 12:22:54;;;;;;;1.50;0.25;;;17.20;94.10;;;;;;4145024;28;20204;-57
2021/10/03 12:25:16;;;;;;;0.40;0.40;;;17.20;94.10;;;;;;4144546;28;20488;-56
2021/10/03 12:27:39;;;;;;;0.52;0.30;;;17.20;94.10;;;;;;4149615;28;20510;-57
2021/10/03 12:30:01;;;;;;;0.22;0.22;;;17.20;94.10;;;;;;4160863;28;20049;-57
2021/10/03 12:32:26;;;;;;;0.45;0.25;;;17.20;94.10;;;;;;4161182;28;20041;-57
2021/10/03 12:34:52;;;;;;;0.82;0.57;;;17.20;94.10;;;;;;4161392;28;20049;-57